Strandell, Washington
Current Conditions -  °F | °C
As of 3:00 PM on Thursday 18 Dec 2014 (Local Time) from CYXX Reporting Station
Light Rain Light Rain  
Wind Chill: 41°   Ceiling: 3000
Heat Index: 45°   Visibility: 15mi
Dew Point: 43°   Wind: 6mph
Humidity: 93%   Direction: 50°NE
Pressure: 29.8"   Gusts: NA
Location:  48.9068°N, 122.295°W
Report Text: CYXX 182300Z 05005KT 15SM -RA FEW003 OVC030 07/06 A2980 RMK SF1SC8 SF TR SLP094
Loading
Personal Weather Stations






























Interactive Weather Map New forecast layout! Learn more

10-Day Weather Forecast

Advertisements
Track Severe Weather on mobile